Time;durP1;ratioP1;P1;durP2;ratioP2;P2;SDS_P1;SDS_P2;PMS_P1;PMS_P2;Temp;Humidity;BMP_temperature;BMP_pressure;BME280_temperature;BME280_humidity;BME280_pressure;Samples;Min_cycle;Max_cycle;Signal;HPM_P1;HPM_P2
2022/05/15 07:57:21;;;;;;;2.93;2.73;;;34.00;40.20;;;;;;5044267;28;20596;-57
2022/05/15 07:59:47;;;;;;;4.60;2.40;;;34.50;44.00;;;;;;5018985;28;20430;-54
2022/05/15 08:02:12;;;;;;;4.83;3.57;;;34.50;43.60;;;;;;5025005;28;20228;-65
2022/05/15 08:10:08;;;;;;;4.13;3.73;;;34.30;39.10;;;;;;5024092;28;20444;-70
2022/05/15 08:12:34;;;;;;;3.93;3.53;;;36.00;37.80;;;;;;5024938;28;20475;-68
2022/05/15 08:15:04;;;;;;;2.97;2.70;;;37.40;36.00;;;;;;5025524;28;20456;-68
2022/05/15 08:17:30;;;;;;;4.07;2.97;;;37.80;33.80;;;;;;5023317;28;20465;-70
2022/05/15 08:25:25;;;;;;;2.83;2.63;;;37.70;33.70;;;;;;5022672;28;20495;-70
2022/05/15 08:27:50;;;;;;;3.20;2.90;;;39.20;32.30;;;;;;5025001;28;21458;-66
2022/05/15 08:30:17;;;;;;;3.20;2.90;;;37.00;32.20;;;;;;5025947;28;20554;-71
2022/05/15 08:32:43;;;;;;;3.70;2.70;;;37.40;33.70;;;;;;5024631;28;20692;-70
2022/05/15 08:35:09;;;;;;;2.53;2.33;;;38.50;32.10;;;;;;5024744;28;20440;-69
2022/05/15 08:37:36;;;;;;;3.17;2.93;;;38.10;32.20;;;;;;5022641;28;20456;-70
2022/05/15 08:40:02;;;;;;;2.73;2.53;;;37.00;31.70;;;;;;5025539;28;20532;-70
2022/05/15 08:42:56;;;;;;;4.10;3.70;;;35.70;34.40;;;;;;5023463;28;20448;-72
2022/05/15 08:45:29;;;;;;;2.90;2.70;;;36.80;34.20;;;;;;5025994;28;20452;-71
2022/05/15 08:48:04;;;;;;;3.10;2.70;;;36.80;32.80;;;;;;5027171;28;20495;-72
2022/05/15 08:50:37;;;;;;;2.70;2.50;;;37.90;32.80;;;;;;5027258;28;20472;-74
2022/05/15 08:53:07;;;;;;;3.30;3.00;;;37.80;32.60;;;;;;5025480;28;20437;-74
2022/05/15 08:55:42;;;;;;;4.33;2.80;;;38.40;32.50;;;;;;5022244;28;20969;-78
2022/05/15 08:58:12;;;;;;;2.50;2.40;;;38.60;31.30;;;;;;5041645;28;20456;-74
2022/05/15 09:00:44;;;;;;;3.50;2.80;;;38.30;31.60;;;;;;5015706;28;20442;-75
2022/05/15 09:03:18;;;;;;;3.07;2.80;;;37.90;30.90;;;;;;5024694;28;21129;-74
2022/05/15 09:05:57;;;;;;;3.63;3.17;;;37.10;32.80;;;;;;5024949;28;20449;-73
2022/05/15 09:09:01;;;;;;;2.70;2.50;;;37.20;33.10;;;;;;5012229;28;20465;-63
2022/05/15 09:11:47;;;;;;;2.80;2.60;;;37.20;31.30;;;;;;5011495;28;20437;-69
2022/05/15 09:14:57;;;;;;;4.20;2.80;;;37.80;32.70;;;;;;5027408;28;20453;-70
2022/05/15 09:17:32;;;;;;;2.57;2.37;;;38.10;32.30;;;;;;5022822;28;20477;-69
2022/05/15 09:20:06;;;;;;;2.83;2.63;;;37.40;31.70;;;;;;5010676;28;20445;-70
2022/05/15 09:22:36;;;;;;;2.67;2.47;;;37.40;31.30;;;;;;5008724;28;20934;-69
2022/05/15 09:25:07;;;;;;;2.63;2.43;;;38.10;32.40;;;;;;5006510;28;20453;-72
2022/05/15 09:27:32;;;;;;;2.97;2.77;;;38.50;31.00;;;;;;5010165;28;20460;-74
2022/05/15 09:30:05;;;;;;;2.20;2.10;;;38.70;30.90;;;;;;5011870;28;20816;-72
2022/05/15 09:32:42;;;;;;;3.13;2.53;;;38.30;30.10;;;;;;5011821;28;20191;-72
2022/05/15 09:35:31;;;;;;;2.70;2.50;;;37.80;30.60;;;;;;5010102;28;20572;-67
2022/05/15 09:43:37;;;;;;;2.53;2.33;;;38.20;30.40;;;;;;5010900;28;20457;-71
2022/05/15 09:46:20;;;;;;;3.90;2.70;;;38.30;30.20;;;;;;5007488;28;20827;-72
2022/05/15 09:49:01;;;;;;;2.50;2.30;;;38.70;30.30;;;;;;5012139;28;20465;-72
2022/05/15 09:51:54;;;;;;;2.83;2.53;;;39.10;29.70;;;;;;5011971;28;20850;-72
2022/05/15 09:54:34;;;;;;;2.90;2.30;;;38.40;29.30;;;;;;5005794;28;21068;-72
2022/05/15 09:57:26;;;;;;;2.67;2.43;;;38.30;29.40;;;;;;5010911;28;21020;-69
2022/05/15 10:00:01;;;;;;;2.97;2.67;;;38.10;29.50;;;;;;5006278;28;20897;-69
2022/05/15 10:02:43;;;;;;;3.07;2.67;;;38.20;30.30;;;;;;5006013;28;20441;-68
2022/05/15 10:05:12;;;;;;;2.40;2.20;;;37.90;30.80;;;;;;5000311;28;20493;-65
2022/05/15 10:07:44;;;;;;;2.50;2.10;;;38.00;30.60;;;;;;4999154;28;20552;-66
2022/05/15 10:10:16;;;;;;;2.97;2.77;;;38.80;29.50;;;;;;5010579;28;20445;-66
2022/05/15 10:12:44;;;;;;;2.40;2.20;;;38.70;29.90;;;;;;5011085;28;20499;-66
2022/05/15 10:15:11;;;;;;;4.50;2.50;;;38.00;30.30;;;;;;5010221;28;20437;-66
2022/05/15 10:17:48;;;;;;;2.63;2.33;;;36.40;31.20;;;;;;5011344;28;21031;-66
2022/05/15 10:20:23;;;;;;;3.40;2.50;;;34.80;33.80;;;;;;5022716;28;20441;-61
2022/05/15 10:22:56;;;;;;;3.17;2.30;;;33.50;34.70;;;;;;5009222;28;20438;-61
2022/05/15 10:25:43;;;;;;;2.53;2.00;;;32.30;36.10;;;;;;5010366;28;20447;-61
2022/05/15 10:28:27;;;;;;;2.53;2.33;;;31.20;38.20;;;;;;5009900;28;20457;-61
2022/05/15 10:31:03;;;;;;;2.93;2.70;;;30.60;40.00;;;;;;5010029;28;20438;-61
2022/05/15 10:33:35;;;;;;;3.83;2.40;;;30.30;40.50;;;;;;5007413;28;20468;-61
2022/05/15 10:36:19;;;;;;;2.50;2.30;;;29.40;41.30;;;;;;5009811;28;20471;-61
2022/05/15 10:39:01;;;;;;;2.70;2.50;;;29.10;42.20;;;;;;5005349;28;20503;-67
2022/05/15 10:41:37;;;;;;;2.73;2.53;;;28.80;41.80;;;;;;5010546;28;20442;-67
2022/05/15 10:44:35;;;;;;;2.63;2.30;;;28.70;42.60;;;;;;5007583;28;20443;-66
2022/05/15 10:47:08;;;;;;;3.50;3.00;;;28.60;43.40;;;;;;5011796;28;20485;-66
2022/05/15 10:49:49;;;;;;;4.10;2.30;;;28.50;43.90;;;;;;5011334;28;20447;-66
2022/05/15 10:52:27;;;;;;;2.50;2.30;;;28.40;43.50;;;;;;5002409;28;20436;-68
2022/05/15 10:58:17;;;;;;;3.20;2.40;;;29.30;42.30;;;;;;5009515;28;20500;-69
2022/05/15 11:01:20;;;;;;;2.70;2.50;;;30.80;38.10;;;;;;5006413;28;20496;-69
2022/05/15 11:03:58;;;;;;;3.00;2.80;;;31.50;37.40;;;;;;5008270;28;20459;-68
2022/05/15 11:06:34;;;;;;;2.30;2.10;;;32.50;35.30;;;;;;5008896;28;20456;-75
2022/05/15 11:09:06;;;;;;;2.43;2.23;;;33.60;33.90;;;;;;5010195;28;20430;-72
2022/05/15 11:12:12;;;;;;;3.00;2.50;;;34.10;33.80;;;;;;5009973;28;20441;-74
2022/05/15 11:15:02;;;;;;;2.73;2.20;;;35.40;33.00;;;;;;5007162;28;20441;-77
2022/05/15 11:17:31;;;;;;;2.93;2.30;;;36.10;31.30;;;;;;5008406;28;20521;-78
2022/05/15 11:20:06;;;;;;;2.30;2.10;;;35.70;31.50;;;;;;5017442;28;20823;-73
2022/05/15 11:22:47;;;;;;;4.13;2.70;;;35.30;32.10;;;;;;5009808;28;20996;-75
2022/05/15 11:25:31;;;;;;;3.37;2.60;;;36.20;31.80;;;;;;5009333;28;20528;-73
2022/05/15 11:28:15;;;;;;;3.63;2.30;;;35.50;31.70;;;;;;4997463;28;20518;-70
2022/05/15 11:30:44;;;;;;;2.80;2.60;;;35.20;32.10;;;;;;5009128;28;20608;-70
2022/05/15 11:33:25;;;;;;;2.70;2.50;;;35.60;31.50;;;;;;5005123;28;20457;-70
2022/05/15 11:36:26;;;;;;;2.73;2.27;;;35.00;32.30;;;;;;5006955;28;20474;-69
2022/05/15 11:38:55;;;;;;;2.80;2.40;;;34.70;32.10;;;;;;5008253;28;20469;-70
2022/05/15 11:41:39;;;;;;;3.67;2.50;;;34.70;32.60;;;;;;5009486;28;20430;-69
2022/05/15 11:44:09;;;;;;;2.70;2.20;;;34.00;32.80;;;;;;5007446;28;20440;-64
2022/05/15 11:46:49;;;;;;;2.77;2.30;;;33.40;33.40;;;;;;5008783;28;20448;-64
2022/05/15 11:49:14;;;;;;;3.57;2.67;;;32.80;34.60;;;;;;5006988;28;20444;-68
2022/05/15 11:51:42;;;;;;;3.00;2.70;;;32.20;34.90;;;;;;5008713;28;20449;-73
2022/05/15 11:54:10;;;;;;;2.70;2.50;;;31.60;35.60;;;;;;5005868;28;20261;-74
2022/05/15 11:56:36;;;;;;;2.87;2.67;;;31.00;36.60;;;;;;5008866;28;20989;-59
2022/05/15 11:59:25;;;;;;;3.23;2.93;;;30.60;37.10;;;;;;5007445;28;20478;-64
2022/05/15 12:01:57;;;;;;;3.50;2.40;;;30.10;37.70;;;;;;5005515;28;20290;-64
2022/05/15 12:04:25;;;;;;;2.60;2.40;;;29.80;37.90;;;;;;5009092;28;20436;-64
2022/05/15 12:06:57;;;;;;;2.90;2.70;;;29.50;38.20;;;;;;5007873;28;20465;-64
2022/05/15 12:09:32;;;;;;;3.27;2.60;;;29.10;39.20;;;;;;5008680;28;20445;-64
2022/05/15 12:12:23;;;;;;;4.53;2.60;;;29.00;40.00;;;;;;5008880;28;20591;-65
2022/05/15 12:15:10;;;;;;;3.40;2.27;;;28.80;39.60;;;;;;5002235;28;20450;-68
2022/05/15 12:17:49;;;;;;;2.97;2.20;;;28.70;39.80;;;;;;5005291;28;20472;-69
2022/05/15 12:20:20;;;;;;;2.90;2.33;;;28.70;40.80;;;;;;5008271;28;20425;-69
2022/05/15 12:23:11;;;;;;;2.50;2.30;;;28.70;41.80;;;;;;5008505;28;20450;-68
2022/05/15 12:25:55;;;;;;;2.93;2.73;;;28.70;40.40;;;;;;5006752;28;20459;-69
2022/05/15 12:28:52;;;;;;;4.83;2.90;;;28.80;41.40;;;;;;5006977;28;20463;-69
2022/05/15 12:31:45;;;;;;;3.00;2.80;;;28.70;41.10;;;;;;5003079;28;20461;-68
2022/05/15 12:34:32;;;;;;;4.10;3.00;;;28.60;41.50;;;;;;5008068;28;20450;-69
2022/05/15 12:37:27;;;;;;;4.07;2.90;;;28.60;40.60;;;;;;5006155;28;20558;-69
2022/05/15 12:39:55;;;;;;;3.40;2.30;;;28.30;40.80;;;;;;5005635;28;20445;-68
2022/05/15 12:42:35;;;;;;;2.80;2.53;;;28.20;40.50;;;;;;5005172;28;21235;-67
2022/05/15 12:45:02;;;;;;;3.00;2.10;;;28.10;39.20;;;;;;5010129;28;20446;-68
2022/05/15 12:47:32;;;;;;;2.70;2.50;;;27.90;40.00;;;;;;5010712;28;20461;-68
2022/05/15 12:50:03;;;;;;;3.80;2.70;;;27.80;40.60;;;;;;5000998;28;20503;-68
2022/05/15 12:52:33;;;;;;;3.10;2.80;;;27.90;41.00;;;;;;5002937;28;20452;-68
2022/05/15 12:55:23;;;;;;;2.73;2.43;;;27.80;41.30;;;;;;5011729;28;20493;-69
2022/05/15 12:57:52;;;;;;;4.30;3.07;;;27.80;42.00;;;;;;5002550;28;20825;-69
2022/05/15 13:00:22;;;;;;;3.20;2.60;;;27.90;42.10;;;;;;5009764;28;21005;-65
2022/05/15 13:02:48;;;;;;;3.10;2.20;;;28.00;41.50;;;;;;5012020;28;20681;-70
2022/05/15 13:05:26;;;;;;;2.47;2.27;;;27.90;41.60;;;;;;5009578;28;20609;-71
2022/05/15 13:07:57;;;;;;;2.40;2.20;;;27.90;41.70;;;;;;5009897;28;20211;-70
2022/05/15 13:10:25;;;;;;;2.60;2.23;;;27.90;42.20;;;;;;5026618;28;20485;-71
2022/05/15 13:13:01;;;;;;;5.50;2.60;;;28.00;42.10;;;;;;5011245;28;20511;-71
2022/05/15 13:15:30;;;;;;;3.00;2.47;;;27.90;41.50;;;;;;5008317;28;20461;-70
2022/05/15 13:18:04;;;;;;;2.60;2.50;;;28.30;41.50;;;;;;5006322;28;20469;-71
2022/05/15 13:20:30;;;;;;;2.40;2.20;;;27.70;41.80;;;;;;5006930;28;20438;-70
2022/05/15 13:22:59;;;;;;;2.83;2.33;;;27.60;42.10;;;;;;5009593;28;20541;-71
2022/05/15 13:25:36;;;;;;;4.60;2.43;;;27.70;42.50;;;;;;5012608;28;20529;-71
2022/05/15 13:28:03;;;;;;;2.53;2.10;;;27.70;42.30;;;;;;5007306;28;20488;-71
2022/05/15 13:30:33;;;;;;;2.90;2.50;;;27.80;42.10;;;;;;5011405;28;20545;-71
2022/05/15 13:33:05;;;;;;;3.10;2.23;;;27.80;41.80;;;;;;5006802;28;20592;-71
2022/05/15 13:35:39;;;;;;;2.47;2.03;;;27.70;41.50;;;;;;5011219;28;20881;-71
2022/05/15 13:38:19;;;;;;;3.50;2.33;;;27.70;41.80;;;;;;5004358;28;20468;-70
2022/05/15 13:44:00;;;;;;;2.40;2.07;;;27.60;42.30;;;;;;5011069;28;20513;-65
2022/05/15 13:46:29;;;;;;;2.47;2.27;;;27.80;42.10;;;;;;5009863;28;20460;-65
2022/05/15 13:49:03;;;;;;;2.33;2.13;;;27.80;41.80;;;;;;5012010;28;20453;-65
2022/05/15 13:51:47;;;;;;;2.70;2.30;;;27.80;41.00;;;;;;5011583;28;20448;-65
2022/05/15 13:54:17;;;;;;;2.67;2.47;;;27.90;40.50;;;;;;5011092;28;20493;-65
2022/05/15 13:56:59;;;;;;;2.47;2.27;;;27.90;41.80;;;;;;5011729;28;20482;-65
2022/05/15 13:59:34;;;;;;;3.17;2.50;;;27.90;41.70;;;;;;5008724;28;20511;-65
2022/05/15 14:02:13;;;;;;;3.30;2.33;;;27.70;41.70;;;;;;5006153;28;20449;-65
2022/05/15 14:04:44;;;;;;;3.37;2.47;;;27.80;42.20;;;;;;5007228;28;20442;-65
2022/05/15 14:07:23;;;;;;;8.40;2.30;;;27.70;41.60;;;;;;5009799;28;20971;-65
2022/05/15 14:09:55;;;;;;;2.80;2.37;;;28.00;41.60;;;;;;5008283;28;20445;-65
2022/05/15 14:12:40;;;;;;;2.87;2.67;;;27.60;42.20;;;;;;5010461;28;20486;-65
2022/05/15 14:15:07;;;;;;;4.13;2.23;;;27.60;42.40;;;;;;5007738;28;20515;-65
2022/05/15 14:17:51;;;;;;;2.67;2.37;;;27.70;42.80;;;;;;5009701;28;20528;-65
2022/05/15 14:20:26;;;;;;;2.90;2.70;;;27.70;42.60;;;;;;5001107;28;20485;-65
2022/05/15 14:22:51;;;;;;;4.03;2.27;;;27.80;42.00;;;;;;5008606;28;20444;-65
2022/05/15 14:25:17;;;;;;;2.30;2.10;;;27.70;41.60;;;;;;5004710;28;20810;-65
2022/05/15 14:27:43;;;;;;;2.20;2.00;;;27.60;41.40;;;;;;5008736;28;20256;-65
2022/05/15 14:30:09;;;;;;;2.67;2.43;;;27.50;41.80;;;;;;5023058;28;20186;-65
2022/05/15 14:32:36;;;;;;;3.60;2.40;;;27.50;41.80;;;;;;5004777;28;20188;-65
2022/05/15 14:35:06;;;;;;;2.73;2.57;;;27.40;42.00;;;;;;5010906;28;20472;-65
2022/05/15 14:37:32;;;;;;;2.70;2.50;;;27.40;42.10;;;;;;5008449;28;20542;-65
2022/05/15 14:39:58;;;;;;;2.30;2.03;;;27.40;42.00;;;;;;5009493;28;20532;-64
2022/05/15 14:42:23;;;;;;;2.70;2.50;;;27.40;41.70;;;;;;5000646;28;20650;-65
2022/05/15 14:44:49;;;;;;;3.60;2.40;;;27.40;41.70;;;;;;5005657;28;20449;-64
2022/05/15 14:47:17;;;;;;;5.33;2.63;;;27.40;42.30;;;;;;5009468;28;20215;-64
2022/05/15 14:49:48;;;;;;;3.53;2.40;;;27.50;42.60;;;;;;5010132;28;20741;-65
2022/05/15 14:52:17;;;;;;;2.60;2.40;;;27.50;41.30;;;;;;5024833;28;20461;-65
2022/05/15 14:54:43;;;;;;;2.80;2.50;;;27.50;41.80;;;;;;5009026;28;20446;-64
2022/05/15 14:57:09;;;;;;;2.40;2.10;;;27.50;42.10;;;;;;5005226;28;20964;-64
2022/05/15 14:59:39;;;;;;;3.00;2.70;;;27.40;42.40;;;;;;5007370;28;20572;-64
2022/05/15 15:02:07;;;;;;;2.60;2.40;;;27.40;42.40;;;;;;5002376;28;20445;-64
2022/05/15 15:04:33;;;;;;;3.80;3.20;;;27.30;42.20;;;;;;5010302;28;20430;-64
2022/05/15 15:06:59;;;;;;;2.33;2.10;;;27.20;42.30;;;;;;5007573;28;20465;-65
2022/05/15 15:09:24;;;;;;;12.80;11.23;;;27.20;42.50;;;;;;5008635;28;20593;-64
2022/05/15 15:11:53;;;;;;;2.40;2.20;;;27.10;42.50;;;;;;5008939;28;20568;-64
2022/05/15 15:14:20;;;;;;;5.17;3.80;;;27.00;42.40;;;;;;5006336;28;20660;-64
2022/05/15 15:16:49;;;;;;;2.50;2.13;;;27.10;41.80;;;;;;5002072;28;20547;-64
2022/05/15 15:19:16;;;;;;;2.40;2.20;;;27.00;42.20;;;;;;5009020;28;20446;-64
2022/05/15 15:21:43;;;;;;;2.50;1.97;;;27.00;42.40;;;;;;5007662;28;20814;-64
2022/05/15 15:24:10;;;;;;;4.17;2.03;;;27.00;42.10;;;;;;5008998;28;20445;-64
2022/05/15 15:26:36;;;;;;;2.40;2.20;;;27.00;42.30;;;;;;5007246;28;20461;-64
2022/05/15 15:29:03;;;;;;;2.47;2.27;;;27.10;42.50;;;;;;4999620;28;20480;-65
2022/05/15 15:31:32;;;;;;;2.90;2.53;;;27.10;42.50;;;;;;5007563;28;20453;-64
2022/05/15 15:34:04;;;;;;;4.80;2.33;;;27.00;42.40;;;;;;5007946;28;20483;-64
2022/05/15 15:36:31;;;;;;;4.50;2.30;;;27.00;42.30;;;;;;5004941;28;20486;-65
2022/05/15 15:38:56;;;;;;;2.50;2.30;;;26.90;43.00;;;;;;5006412;28;20484;-64
2022/05/15 15:41:23;;;;;;;3.00;2.47;;;26.90;43.00;;;;;;5009840;28;20889;-64
2022/05/15 15:43:52;;;;;;;2.80;2.40;;;26.90;43.10;;;;;;5006928;28;20261;-65
2022/05/15 15:46:20;;;;;;;2.57;2.37;;;26.90;42.70;;;;;;5006161;28;20531;-64
2022/05/15 15:48:46;;;;;;;2.73;2.30;;;26.90;43.00;;;;;;5002162;28;20496;-64
2022/05/15 15:51:36;;;;;;;3.67;2.73;;;26.80;43.00;;;;;;5006543;28;20453;-65
2022/05/15 15:54:05;;;;;;;2.30;2.10;;;26.80;43.20;;;;;;5005066;28;20983;-64
2022/05/15 15:56:34;;;;;;;3.70;2.50;;;26.80;43.10;;;;;;5008701;28;20480;-64
2022/05/15 15:59:01;;;;;;;4.17;2.50;;;26.70;43.30;;;;;;5006838;28;20452;-65
2022/05/15 16:01:30;;;;;;;2.43;2.13;;;26.70;43.20;;;;;;5008233;28;20762;-65
2022/05/15 16:03:56;;;;;;;5.63;2.13;;;26.80;43.00;;;;;;5002768;28;20438;-65
2022/05/15 16:06:23;;;;;;;5.67;2.73;;;26.70;43.30;;;;;;5009186;28;20478;-66
2022/05/15 16:08:51;;;;;;;3.93;3.53;;;26.70;43.50;;;;;;5007000;28;20461;-65
2022/05/15 16:11:18;;;;;;;4.73;3.10;;;26.70;43.30;;;;;;5007348;28;20444;-65
2022/05/15 16:13:44;;;;;;;3.30;2.90;;;26.70;43.10;;;;;;5007596;28;20449;-65
2022/05/15 16:16:10;;;;;;;4.97;3.07;;;26.80;43.50;;;;;;5006599;28;20559;-66
2022/05/15 16:18:36;;;;;;;3.93;2.70;;;26.80;44.60;;;;;;5011352;28;20878;-66
2022/05/15 16:21:11;;;;;;;3.13;2.10;;;26.70;43.30;;;;;;5009472;28;20187;-65
2022/05/15 16:23:39;;;;;;;3.13;2.23;;;26.70;43.10;;;;;;5005845;28;20528;-67
2022/05/15 16:26:07;;;;;;;2.70;2.50;;;26.70;42.90;;;;;;5006793;28;20455;-66
2022/05/15 16:28:34;;;;;;;3.53;2.33;;;26.70;43.10;;;;;;5008302;28;21007;-65
2022/05/15 16:31:03;;;;;;;2.77;2.20;;;26.60;42.90;;;;;;5011628;28;20481;-66
2022/05/15 16:33:30;;;;;;;3.27;2.23;;;26.60;43.00;;;;;;5010071;28;21111;-65
2022/05/15 16:35:56;;;;;;;2.50;2.17;;;26.60;43.70;;;;;;5011075;28;20515;-64
2022/05/15 16:38:22;;;;;;;2.30;2.10;;;26.60;43.70;;;;;;5005214;28;20532;-64
2022/05/15 16:40:47;;;;;;;2.63;2.43;;;26.50;43.20;;;;;;5011373;28;20441;-64
2022/05/15 16:43:16;;;;;;;5.10;2.47;;;26.80;43.80;;;;;;5012062;28;20686;-64
2022/05/15 16:45:42;;;;;;;2.80;2.60;;;26.50;43.90;;;;;;5012453;28;20194;-64
2022/05/15 16:48:08;;;;;;;2.40;2.20;;;26.40;44.20;;;;;;5011418;28;20463;-64
2022/05/15 16:50:34;;;;;;;2.60;2.40;;;26.40;43.30;;;;;;5010097;28;20412;-65
2022/05/15 16:53:00;;;;;;;3.20;2.63;;;26.40;44.10;;;;;;5027552;28;20822;-64
2022/05/15 16:55:28;;;;;;;2.40;2.20;;;26.40;43.70;;;;;;5010487;28;20206;-64
2022/05/15 16:57:54;;;;;;;2.70;2.50;;;26.40;44.10;;;;;;5011855;28;20472;-64
2022/05/15 17:00:21;;;;;;;2.90;2.60;;;26.40;44.00;;;;;;5010864;28;21263;-64
2022/05/15 17:02:48;;;;;;;2.80;2.30;;;26.40;44.20;;;;;;5010523;28;20448;-64
2022/05/15 17:05:17;;;;;;;2.87;2.67;;;26.40;44.00;;;;;;5007745;28;20445;-64
2022/05/15 17:07:43;;;;;;;2.70;2.50;;;26.40;43.90;;;;;;5011519;28;20555;-64
2022/05/15 17:10:09;;;;;;;2.73;2.10;;;26.40;43.20;;;;;;5010429;28;20457;-64
2022/05/15 17:12:35;;;;;;;2.20;2.10;;;26.30;43.30;;;;;;5006145;28;20565;-64
2022/05/15 17:15:03;;;;;;;2.40;2.20;;;26.40;44.20;;;;;;5003782;28;20454;-64
2022/05/15 17:17:29;;;;;;;2.50;2.30;;;26.30;44.20;;;;;;5008443;28;20479;-64
2022/05/15 17:19:54;;;;;;;2.63;2.43;;;26.30;44.40;;;;;;5010846;28;21591;-64
2022/05/15 17:22:20;;;;;;;2.37;2.17;;;26.20;43.60;;;;;;5011989;28;20193;-64
2022/05/15 17:24:46;;;;;;;2.43;2.23;;;26.20;43.80;;;;;;5010885;28;20225;-64
2022/05/15 17:27:11;;;;;;;2.70;2.50;;;26.20;44.20;;;;;;5009090;28;20247;-64
2022/05/15 17:35:10;;;;;;;2.77;2.57;;;26.10;44.80;;;;;;5011892;28;20540;-64
2022/05/15 17:37:37;;;;;;;2.80;2.60;;;26.10;45.60;;;;;;5012061;28;21060;-64
2022/05/15 17:40:13;;;;;;;2.70;2.47;;;26.20;44.70;;;;;;5006908;28;20464;-64
2022/05/15 17:42:40;;;;;;;2.17;2.07;;;26.10;44.10;;;;;;5011783;28;20444;-64
2022/05/15 17:45:07;;;;;;;3.23;3.00;;;26.10;44.40;;;;;;5008607;28;20449;-65
2022/05/15 17:47:33;;;;;;;4.53;2.10;;;26.10;45.10;;;;;;4998516;28;20547;-64
2022/05/15 17:49:58;;;;;;;2.93;2.50;;;26.00;45.10;;;;;;5009569;28;20553;-64
2022/05/15 17:52:24;;;;;;;2.70;2.50;;;26.00;45.10;;;;;;5006495;28;20559;-64
2022/05/15 17:54:50;;;;;;;2.93;2.73;;;26.00;45.70;;;;;;5009546;28;20638;-64
2022/05/15 17:57:16;;;;;;;3.10;2.70;;;26.00;45.70;;;;;;5004747;28;20997;-64
2022/05/15 17:59:42;;;;;;;3.10;2.90;;;26.10;46.00;;;;;;5006588;28;20801;-64
2022/05/15 18:02:10;;;;;;;3.33;3.03;;;26.10;46.20;;;;;;5009473;28;20540;-64
2022/05/15 18:04:36;;;;;;;3.80;2.90;;;26.10;45.90;;;;;;5011131;28;20966;-64
2022/05/15 18:07:03;;;;;;;2.70;2.50;;;26.00;46.00;;;;;;5009215;28;20579;-64
2022/05/15 18:09:29;;;;;;;3.40;2.50;;;25.90;46.10;;;;;;5008878;28;20543;-65
2022/05/15 18:11:54;;;;;;;5.90;2.87;;;25.90;46.10;;;;;;5008619;28;20463;-65
2022/05/15 18:14:20;;;;;;;4.60;2.70;;;25.80;46.20;;;;;;5011031;28;20464;-65
2022/05/15 18:16:48;;;;;;;2.50;2.30;;;25.80;47.00;;;;;;5009839;28;20717;-64
2022/05/15 18:19:14;;;;;;;3.67;2.40;;;25.70;46.00;;;;;;5006537;28;20521;-65
2022/05/15 18:21:40;;;;;;;3.43;3.13;;;25.60;46.80;;;;;;5008576;28;20451;-64
2022/05/15 18:24:07;;;;;;;3.03;2.70;;;25.50;46.70;;;;;;5006232;28;20536;-65
2022/05/15 18:26:32;;;;;;;3.07;2.87;;;25.50;47.60;;;;;;5009925;28;20451;-65
2022/05/15 18:28:58;;;;;;;2.93;2.73;;;25.40;48.70;;;;;;5009662;28;20898;-65
2022/05/15 18:31:25;;;;;;;3.70;3.10;;;25.30;50.30;;;;;;5009117;28;20662;-65
2022/05/15 18:33:51;;;;;;;2.83;2.63;;;25.20;50.40;;;;;;5010213;28;20191;-65
2022/05/15 18:36:18;;;;;;;3.87;3.10;;;25.10;50.60;;;;;;5009981;28;20957;-65
2022/05/15 18:38:44;;;;;;;3.10;2.90;;;25.00;50.10;;;;;;5002527;28;20515;-72
2022/05/15 18:41:10;;;;;;;3.03;2.83;;;24.90;51.20;;;;;;5008236;28;20860;-65
2022/05/15 18:43:37;;;;;;;3.87;2.70;;;24.90;51.50;;;;;;5024856;28;20520;-65
2022/05/15 18:46:03;;;;;;;3.57;3.27;;;24.70;51.50;;;;;;5009200;28;20907;-65
2022/05/15 18:48:29;;;;;;;3.87;3.00;;;24.70;51.80;;;;;;5005902;28;20469;-65
2022/05/15 18:56:24;;;;;;;2.77;2.50;;;24.30;52.90;;;;;;5010677;28;21000;-65
2022/05/15 18:58:49;;;;;;;2.90;2.70;;;24.20;53.60;;;;;;5008760;28;20505;-65
2022/05/15 19:01:15;;;;;;;4.80;2.97;;;24.10;52.60;;;;;;5009857;28;20251;-64
2022/05/15 19:03:43;;;;;;;3.13;2.60;;;23.90;52.30;;;;;;5010815;28;20183;-65
2022/05/15 19:06:10;;;;;;;3.30;3.00;;;23.80;52.50;;;;;;5008179;28;20454;-64
2022/05/15 19:08:36;;;;;;;3.23;2.90;;;23.80;53.40;;;;;;5009144;28;20501;-64
2022/05/15 19:11:02;;;;;;;3.27;2.97;;;23.60;53.40;;;;;;5008343;28;20454;-64
2022/05/15 19:13:29;;;;;;;6.60;3.60;;;23.40;54.10;;;;;;5009300;28;20445;-64
2022/05/15 19:15:57;;;;;;;3.80;3.33;;;23.30;54.20;;;;;;5009502;28;20465;-64
2022/05/15 19:18:22;;;;;;;4.10;2.90;;;23.20;55.10;;;;;;5010839;28;21000;-64
2022/05/15 19:20:48;;;;;;;3.13;2.93;;;23.00;55.40;;;;;;5009973;28;20437;-64
2022/05/15 19:23:14;;;;;;;3.17;2.80;;;22.90;55.70;;;;;;5004076;28;20816;-64
2022/05/15 19:25:40;;;;;;;3.60;3.20;;;22.70;56.40;;;;;;5007634;28;20541;-64
2022/05/15 19:28:06;;;;;;;5.80;3.80;;;22.60;56.60;;;;;;5009653;28;20209;-64
2022/05/15 19:30:33;;;;;;;3.83;3.53;;;22.50;57.60;;;;;;5009945;28;20818;-64
2022/05/15 19:32:59;;;;;;;3.70;3.40;;;22.30;58.10;;;;;;5009997;28;20441;-64
2022/05/15 19:35:25;;;;;;;3.10;2.80;;;22.30;58.20;;;;;;5009559;28;20475;-64
2022/05/15 19:37:51;;;;;;;3.87;2.90;;;22.30;58.20;;;;;;5008645;28;20229;-64
2022/05/15 19:40:17;;;;;;;5.53;3.43;;;22.10;58.70;;;;;;5009723;28;20477;-64
2022/05/15 19:42:42;;;;;;;7.90;5.30;;;22.00;59.60;;;;;;5008795;28;20581;-64
2022/05/15 19:45:08;;;;;;;5.30;4.80;;;21.90;60.40;;;;;;5007149;28;20453;-64
2022/05/15 19:47:34;;;;;;;5.13;4.60;;;21.80;62.00;;;;;;5006446;28;20258;-64
2022/05/15 19:50:01;;;;;;;3.83;3.53;;;21.80;62.20;;;;;;5010473;28;20210;-64
2022/05/15 19:52:27;;;;;;;6.45;4.00;;;21.80;62.40;;;;;;5009344;28;20209;-64
2022/05/15 19:54:54;;;;;;;5.60;4.83;;;21.70;62.60;;;;;;5008170;28;20195;-65
2022/05/15 19:57:20;;;;;;;4.13;3.73;;;21.60;62.90;;;;;;5008212;28;20479;-64
2022/05/15 19:59:47;;;;;;;4.80;3.50;;;21.60;63.60;;;;;;5008748;28;20496;-64
2022/05/15 20:02:14;;;;;;;4.70;3.45;;;21.60;63.60;;;;;;5009956;28;20469;-65
2022/05/15 20:12:53;;;;;;;4.47;4.07;;;21.30;64.30;;;;;;5006299;28;20443;-65
2022/05/15 20:15:20;;;;;;;4.30;3.77;;;21.50;65.10;;;;;;5006191;28;20268;-65
2022/05/15 20:17:46;;;;;;;4.72;4.00;;;21.10;65.90;;;;;;5008744;28;20838;-65
2022/05/15 20:20:12;;;;;;;4.30;3.70;;;21.10;65.20;;;;;;5009191;28;20191;-65
2022/05/15 20:22:38;;;;;;;4.85;3.42;;;21.10;65.80;;;;;;5010135;28;20546;-65
2022/05/15 20:25:06;;;;;;;4.23;3.80;;;21.00;65.50;;;;;;5008931;28;20185;-65
2022/05/15 20:27:32;;;;;;;4.30;3.95;;;20.80;66.30;;;;;;5010095;28;20212;-64
2022/05/15 20:29:57;;;;;;;3.90;3.47;;;20.70;66.30;;;;;;5009600;28;20205;-64
2022/05/15 20:32:23;;;;;;;4.00;3.27;;;20.70;66.70;;;;;;5010138;28;20433;-64
2022/05/15 20:34:49;;;;;;;5.30;3.40;;;20.70;67.00;;;;;;5010395;28;20198;-64
2022/05/15 20:37:15;;;;;;;4.20;3.10;;;20.70;67.60;;;;;;5009861;28;20522;-64
2022/05/15 20:39:40;;;;;;;3.37;3.00;;;20.50;67.70;;;;;;5010100;28;20183;-65
2022/05/15 20:42:06;;;;;;;3.67;3.27;;;20.50;68.30;;;;;;5010137;28;20187;-65
2022/05/15 20:44:33;;;;;;;5.40;3.50;;;20.40;68.40;;;;;;5009344;28;20274;-65
2022/05/15 20:46:59;;;;;;;3.70;3.40;;;20.40;68.60;;;;;;5009905;28;20611;-65
2022/05/15 20:49:25;;;;;;;3.50;3.20;;;20.30;68.80;;;;;;5025281;28;20286;-65
2022/05/15 20:51:51;;;;;;;4.83;3.40;;;20.30;69.50;;;;;;4997919;28;20547;-65
2022/05/15 20:54:18;;;;;;;4.50;3.70;;;19.90;69.20;;;;;;5008835;28;20262;-65
2022/05/15 20:56:44;;;;;;;3.70;3.40;;;20.20;70.00;;;;;;5009045;28;20473;-65
2022/05/15 20:59:12;;;;;;;6.43;3.70;;;20.10;70.80;;;;;;5008787;28;20644;-65
2022/05/15 21:01:38;;;;;;;3.55;3.25;;;20.00;70.80;;;;;;5009686;28;20234;-65
2022/05/15 21:04:04;;;;;;;3.92;3.53;;;20.00;70.90;;;;;;5026700;28;20574;-65
2022/05/15 21:06:31;;;;;;;5.30;3.92;;;20.00;71.20;;;;;;5012630;28;20191;-63
2022/05/15 21:08:58;;;;;;;5.68;3.90;;;20.00;71.40;;;;;;5011664;28;20191;-64
2022/05/15 21:11:24;;;;;;;3.38;3.08;;;19.90;71.80;;;;;;5012992;28;20179;-63
2022/05/15 21:13:49;;;;;;;4.00;3.60;;;19.80;72.40;;;;;;5008847;28;20221;-63
2022/05/15 21:16:16;;;;;;;4.90;4.20;;;19.80;72.90;;;;;;5010895;28;20515;-64
2022/05/15 21:18:42;;;;;;;4.47;3.50;;;19.80;73.30;;;;;;5012880;28;20207;-64
2022/05/15 21:21:08;;;;;;;8.02;4.40;;;19.60;73.90;;;;;;5012912;28;20179;-63
2022/05/15 21:23:34;;;;;;;4.43;4.00;;;19.60;74.40;;;;;;5008740;28;20186;-63
2022/05/15 21:26:01;;;;;;;3.70;3.20;;;19.50;75.00;;;;;;5012499;28;20197;-65
2022/05/15 21:28:27;;;;;;;4.18;3.80;;;19.50;75.10;;;;;;5008369;28;20207;-66
2022/05/15 21:30:52;;;;;;;4.50;4.00;;;19.40;75.40;;;;;;5012031;28;20202;-63
2022/05/15 21:33:18;;;;;;;5.10;3.53;;;19.40;76.00;;;;;;5012715;28;20447;-63
2022/05/15 21:35:45;;;;;;;3.87;3.47;;;19.30;76.20;;;;;;5006842;28;20329;-63
2022/05/15 21:43:44;;;;;;;3.75;3.35;;;19.30;77.50;;;;;;5012741;28;20205;-63
2022/05/15 21:46:10;;;;;;;3.88;3.58;;;19.20;77.90;;;;;;5011127;28;20190;-64
2022/05/15 21:48:35;;;;;;;4.40;4.00;;;19.20;78.40;;;;;;5011850;28;20621;-64
2022/05/15 21:51:01;;;;;;;3.57;3.27;;;19.10;79.00;;;;;;5011478;28;20241;-63